createdAt,value
2023-04-25T00:01:57.666Z,22.67
2023-04-25T00:04:24.738Z,24.95
2023-04-25T00:06:53.329Z,24.10
2023-04-25T00:09:20.083Z,26.98
2023-04-25T00:11:46.827Z,22.15
2023-04-25T00:14:13.453Z,25.17
2023-04-25T00:16:42.407Z,27.25
2023-04-25T00:19:12.454Z,25.52
2023-04-25T00:21:41.462Z,25.20
2023-04-25T00:24:08.757Z,24.05
2023-04-25T00:26:36.915Z,22.58
2023-04-25T00:29:03.789Z,25.10
2023-04-25T00:31:30.970Z,19.05
2023-04-25T00:33:57.677Z,22.08
2023-04-25T00:36:26.778Z,22.38
2023-04-25T00:38:55.047Z,22.48
2023-04-25T00:41:21.828Z,22.25
2023-04-25T00:43:49.686Z,26.30
2023-04-25T00:46:16.576Z,22.65
2023-04-25T00:48:43.346Z,23.23
2023-04-25T00:51:14.987Z,20.55
2023-04-25T00:53:44.589Z,22.85
2023-04-25T00:56:11.577Z,29.20
2023-04-25T00:58:39.549Z,24.40
2023-04-25T01:01:07.863Z,25.52
2023-04-25T01:03:36.669Z,22.35
2023-04-25T01:06:04.066Z,25.05
2023-04-25T01:08:31.433Z,24.80
2023-04-25T01:11:01.138Z,26.33
2023-04-25T01:13:28.197Z,22.23
2023-04-25T01:15:55.649Z,19.27
2023-04-25T01:18:22.742Z,26.05
2023-04-25T01:20:52.897Z,27.83
2023-04-25T01:23:21.429Z,27.40
2023-04-25T01:25:48.946Z,24.70
2023-04-25T01:28:16.399Z,22.20
2023-04-25T01:30:43.912Z,25.65
2023-04-25T01:33:13.832Z,24.30
2023-04-25T01:35:41.438Z,23.77
2023-04-25T01:38:10.024Z,28.55
2023-04-25T01:40:39.895Z,23.67
2023-04-25T01:43:06.947Z,21.27
2023-04-25T01:45:34.226Z,23.08
2023-04-25T01:48:00.986Z,23.90
2023-04-25T01:50:27.872Z,24.58
2023-04-25T01:52:55.416Z,22.00
2023-04-25T01:55:22.154Z,25.35
2023-04-25T01:57:48.884Z,23.92
2023-04-25T02:00:15.745Z,25.60
2023-04-25T02:02:42.596Z,23.77
2023-04-25T02:05:09.536Z,25.80
2023-04-25T02:07:36.228Z,26.80
2023-04-25T02:10:05.987Z,29.88
2023-04-25T02:12:33.043Z,29.42
2023-04-25T02:14:59.874Z,26.98
2023-04-25T02:17:27.470Z,24.52
2023-04-25T02:19:54.141Z,21.55
2023-04-25T02:22:20.832Z,23.08
2023-04-25T02:24:47.701Z,23.45
2023-04-25T02:27:14.409Z,24.00
2023-04-25T02:29:41.077Z,27.33
2023-04-25T02:32:09.779Z,21.60
2023-04-25T02:34:36.508Z,26.60
2023-04-25T02:37:03.453Z,25.92
2023-04-25T02:39:30.326Z,25.17
2023-04-25T02:41:57.006Z,24.58
2023-04-25T02:44:23.808Z,26.05
2023-04-25T02:46:50.459Z,23.63
2023-04-25T02:49:17.228Z,26.70
2023-04-25T02:51:43.962Z,28.13
2023-04-25T02:54:10.970Z,31.60
2023-04-25T02:56:37.675Z,28.58
2023-04-25T02:59:04.327Z,28.42
2023-04-25T03:01:31.073Z,24.67
2023-04-25T03:03:57.817Z,32.08
2023-04-25T03:06:24.556Z,26.05
2023-04-25T03:08:51.421Z,26.40
2023-04-25T03:11:18.110Z,26.60
2023-04-25T03:13:44.741Z,26.25
2023-04-25T03:16:11.623Z,24.95
2023-04-25T03:18:38.375Z,25.23
2023-04-25T03:21:09.976Z,25.15
2023-04-25T03:23:36.623Z,22.17
2023-04-25T03:26:03.271Z,44.30
2023-04-25T03:28:29.956Z,28.40
2023-04-25T03:30:56.724Z,23.85
2023-04-25T03:33:23.504Z,28.35
2023-04-25T03:35:52.567Z,24.20
2023-04-25T03:38:19.228Z,25.08
2023-04-25T03:40:45.863Z,22.58
2023-04-25T03:43:12.603Z,21.45
2023-04-25T03:45:39.277Z,23.90
2023-04-25T03:48:08.893Z,29.55
2023-04-25T03:50:36.481Z,22.42
2023-04-25T03:53:05.863Z,26.58
2023-04-25T03:55:32.728Z,21.35
2023-04-25T03:57:59.933Z,24.35
2023-04-25T04:00:26.821Z,23.77
2023-04-25T04:02:53.539Z,22.08
2023-04-25T04:05:20.468Z,21.65
2023-04-25T04:07:49.730Z,24.17
2023-04-25T04:10:16.949Z,23.08
2023-04-25T04:12:43.688Z,24.20
2023-04-25T04:15:10.998Z,22.88
2023-04-25T04:17:37.804Z,21.65
2023-04-25T04:20:05.226Z,21.98
2023-04-25T04:22:31.970Z,23.98
2023-04-25T04:24:58.721Z,20.75
2023-04-25T04:27:25.425Z,25.80
2023-04-25T04:29:54.349Z,25.60
2023-04-25T04:32:21.079Z,25.48
2023-04-25T04:34:49.970Z,27.85
2023-04-25T04:37:16.706Z,26.50
2023-04-25T04:39:43.364Z,30.15
2023-04-25T04:42:10.047Z,32.10
2023-04-25T04:44:37.803Z,31.08
2023-04-25T04:47:07.327Z,26.20
2023-04-25T04:49:34.545Z,25.05
2023-04-25T04:52:01.848Z,24.40
2023-04-25T04:54:28.539Z,28.92
2023-04-25T04:56:55.248Z,25.48
2023-04-25T04:59:22.577Z,46.80
2023-04-25T05:01:54.138Z,59.63
2023-04-25T05:04:20.985Z,40.83
2023-04-25T05:06:49.075Z,27.88
2023-04-25T05:09:16.300Z,28.38
2023-04-25T05:11:43.064Z,20.60
2023-04-25T05:14:12.713Z,32.33
2023-04-25T05:16:41.528Z,27.80
2023-04-25T05:19:08.213Z,26.08
2023-04-25T05:21:38.732Z,22.35
2023-04-25T05:24:08.565Z,26.95
2023-04-25T05:26:35.278Z,24.30
2023-04-25T05:29:01.967Z,26.23
2023-04-25T05:31:28.631Z,33.38
2023-04-25T05:33:58.339Z,27.25
2023-04-25T05:36:25.103Z,41.00
2023-04-25T05:38:53.788Z,37.85
2023-04-25T05:41:21.140Z,25.25
2023-04-25T05:43:51.044Z,44.00
2023-04-25T05:46:21.145Z,38.92
2023-04-25T05:48:47.850Z,34.10
2023-04-25T05:51:14.635Z,27.95
2023-04-25T05:53:41.628Z,31.10
2023-04-25T05:56:08.489Z,32.92
2023-04-25T05:58:35.232Z,46.13
2023-04-25T06:01:02.725Z,34.80
2023-04-25T06:03:29.593Z,24.25
2023-04-25T06:05:56.627Z,27.15
2023-04-25T06:08:23.709Z,69.25
2023-04-25T06:10:50.358Z,35.22
2023-04-25T06:13:17.178Z,34.47
2023-04-25T06:15:44.219Z,53.28
2023-04-25T06:18:11.638Z,29.55
2023-04-25T06:20:38.377Z,44.13
2023-04-25T06:23:05.076Z,55.30
2023-04-25T06:25:31.783Z,53.05
2023-04-25T06:27:58.536Z,62.20
2023-04-25T06:30:26.845Z,56.35
2023-04-25T06:32:54.453Z,43.58
2023-04-25T06:35:21.368Z,33.10
2023-04-25T06:37:48.304Z,34.95
2023-04-25T06:40:16.050Z,39.72
2023-04-25T06:42:45.714Z,52.55
2023-04-25T06:45:12.448Z,66.75
2023-04-25T06:47:39.400Z,64.75
2023-04-25T06:50:07.324Z,37.33
2023-04-25T06:52:36.657Z,30.52
2023-04-25T06:55:03.879Z,43.35
2023-04-25T06:57:33.594Z,42.75
2023-04-25T07:00:02.117Z,34.08
2023-04-25T07:02:29.397Z,42.60
2023-04-25T07:05:00.434Z,42.13
2023-04-25T07:07:29.998Z,27.73
2023-04-25T07:09:56.791Z,30.63
2023-04-25T07:12:23.555Z,33.75
2023-04-25T07:14:50.270Z,30.00
2023-04-25T07:17:16.937Z,33.85
2023-04-25T07:19:44.669Z,22.90
2023-04-25T07:22:11.235Z,24.33
2023-04-25T07:24:37.982Z,25.08
2023-04-25T07:27:04.840Z,21.58
2023-04-25T07:29:32.570Z,27.88
2023-04-25T07:31:59.289Z,34.80
2023-04-25T07:34:26.017Z,28.20
2023-04-25T07:36:55.606Z,20.02
2023-04-25T07:39:26.435Z,31.85
2023-04-25T07:41:55.190Z,41.25
2023-04-25T07:44:22.260Z,71.50
2023-04-25T07:46:48.909Z,29.63
2023-04-25T07:49:21.320Z,17.92
2023-04-25T07:51:48.076Z,42.88
2023-04-25T07:54:18.455Z,36.55
2023-04-25T07:56:52.751Z,22.88
2023-04-25T07:59:20.760Z,35.10
2023-04-25T08:01:49.849Z,30.05
2023-04-25T08:04:16.617Z,28.25
2023-04-25T08:06:44.169Z,27.52
2023-04-25T08:09:13.812Z,20.52
2023-04-25T08:11:40.691Z,29.73
2023-04-25T08:14:07.384Z,21.60
2023-04-25T08:16:34.270Z,31.40
2023-04-25T08:19:01.838Z,59.88
2023-04-25T08:21:28.687Z,129.00
2023-04-25T08:23:55.623Z,41.65
2023-04-25T08:26:25.626Z,41.40
2023-04-25T08:28:52.508Z,32.22
2023-04-25T08:31:19.771Z,49.53
2023-04-25T08:33:46.837Z,29.35
2023-04-25T08:36:15.748Z,41.38
2023-04-25T08:38:44.042Z,22.05
2023-04-25T08:41:12.967Z,21.95
2023-04-25T08:43:45.628Z,27.23
2023-04-25T08:46:14.629Z,19.77
2023-04-25T08:48:43.742Z,16.23
2023-04-25T08:51:11.863Z,18.92
2023-04-25T08:53:43.921Z,20.88
2023-04-25T08:56:14.346Z,25.65
2023-04-25T08:58:41.804Z,15.95
2023-04-25T09:01:08.518Z,17.63
2023-04-25T09:03:35.949Z,24.20
2023-04-25T09:06:07.538Z,16.58
2023-04-25T09:08:34.371Z,18.17
2023-04-25T09:11:06.626Z,14.30
2023-04-25T09:13:35.926Z,11.25
2023-04-25T09:16:02.743Z,18.45
2023-04-25T09:18:31.463Z,15.38
2023-04-25T09:21:13.112Z,12.52
2023-04-25T09:23:53.691Z,18.10
2023-04-25T09:26:23.788Z,16.08
2023-04-25T09:28:50.444Z,17.70
2023-04-25T09:31:27.973Z,16.55
2023-04-25T09:34:02.255Z,20.85
2023-04-25T09:36:30.990Z,16.95
2023-04-25T09:39:00.815Z,17.98
2023-04-25T09:41:32.560Z,14.43
2023-04-25T09:44:06.593Z,14.38
2023-04-25T09:46:37.824Z,19.02
2023-04-25T09:49:09.313Z,12.13
2023-04-25T09:51:37.401Z,12.65
2023-04-25T09:54:04.342Z,11.57
2023-04-25T09:56:37.688Z,12.45
2023-04-25T09:59:06.975Z,10.40
2023-04-25T10:01:41.631Z,21.33
2023-04-25T10:04:19.307Z,13.25
2023-04-25T10:06:47.391Z,9.32
2023-04-25T10:09:15.250Z,9.57
2023-04-25T10:11:41.968Z,14.18
2023-04-25T10:14:08.885Z,15.02
2023-04-25T10:16:39.078Z,14.07
2023-04-25T10:19:06.226Z,28.73
2023-04-25T10:21:35.412Z,20.60
2023-04-25T10:24:03.044Z,11.65
2023-04-25T10:26:31.273Z,14.95
2023-04-25T10:29:08.726Z,17.08
2023-04-25T10:31:46.559Z,14.93
2023-04-25T10:34:13.403Z,16.30
2023-04-25T10:36:40.798Z,11.40
2023-04-25T10:39:11.099Z,16.85
2023-04-25T10:41:49.377Z,16.13
2023-04-25T10:44:16.703Z,21.15
2023-04-25T10:46:46.042Z,26.08
2023-04-25T10:49:38.789Z,16.58
2023-04-25T10:52:24.005Z,11.05
2023-04-25T10:55:12.397Z,19.55
2023-04-25T10:57:42.566Z,13.05
2023-04-25T11:00:16.956Z,23.23
2023-04-25T11:02:47.545Z,18.65
2023-04-25T11:05:23.505Z,15.35
2023-04-25T11:08:07.222Z,25.73
2023-04-25T11:10:37.905Z,29.60
2023-04-25T11:13:06.214Z,17.42
2023-04-25T11:15:33.027Z,27.80
2023-04-25T11:17:59.711Z,17.60
2023-04-25T11:20:30.186Z,19.45
2023-04-25T11:25:38.545Z,17.98
2023-04-25T11:28:10.005Z,12.05
2023-04-25T11:30:39.469Z,10.95
2023-04-25T11:33:12.881Z,10.57
2023-04-25T11:35:43.812Z,19.77
2023-04-25T11:38:14.084Z,10.85
2023-04-25T11:40:41.682Z,10.38
2023-04-25T11:43:10.223Z,11.27
2023-04-25T11:45:38.417Z,13.15
2023-04-25T11:48:07.355Z,17.48
2023-04-25T11:50:35.925Z,9.40
2023-04-25T11:53:02.614Z,18.45
2023-04-25T11:55:31.457Z,14.85
2023-04-25T11:58:03.555Z,15.00
2023-04-25T12:00:30.611Z,13.10
2023-04-25T12:03:06.434Z,13.38
2023-04-25T12:05:36.074Z,14.65
2023-04-25T12:08:16.571Z,14.02
2023-04-25T12:10:48.589Z,12.27
2023-04-25T12:13:29.218Z,11.57
2023-04-25T12:15:57.495Z,12.43
2023-04-25T12:18:28.586Z,11.30
2023-04-25T12:20:55.930Z,12.88
2023-04-25T12:23:31.829Z,12.48
2023-04-25T12:26:01.304Z,17.05
2023-04-25T12:28:33.097Z,11.68
2023-04-25T12:31:03.369Z,9.32
2023-04-25T12:33:32.656Z,11.30
2023-04-25T12:36:00.389Z,9.98
2023-04-25T12:38:40.218Z,10.00
2023-04-25T12:41:07.564Z,7.78
2023-04-25T12:43:34.348Z,23.30
2023-04-25T12:46:03.479Z,10.27
2023-04-25T12:48:30.136Z,12.38
2023-04-25T12:50:59.487Z,10.50
2023-04-25T12:53:26.198Z,9.93
2023-04-25T12:55:52.991Z,8.07
2023-04-25T12:58:21.121Z,5.90
2023-04-25T13:00:48.479Z,8.05
2023-04-25T13:03:15.621Z,10.57
2023-04-25T13:05:43.651Z,10.18
2023-04-25T13:08:10.758Z,10.23
2023-04-25T13:10:57.246Z,9.38
2023-04-25T13:13:23.933Z,14.18
2023-04-25T13:15:51.194Z,10.88
2023-04-25T13:18:18.109Z,10.10
2023-04-25T13:20:44.870Z,7.07
2023-04-25T13:23:11.619Z,8.30
2023-04-25T13:25:38.321Z,17.00
2023-04-25T13:28:05.788Z,15.25
2023-04-25T13:30:32.537Z,5.40
2023-04-25T13:33:06.872Z,23.92
2023-04-25T13:35:35.495Z,16.33
2023-04-25T13:38:02.586Z,42.35
2023-04-25T13:40:33.433Z,6.95
2023-04-25T13:43:00.384Z,8.43
2023-04-25T13:45:27.023Z,18.10
2023-04-25T13:47:56.782Z,32.30
2023-04-25T13:50:26.612Z,17.95
2023-04-25T13:52:53.263Z,8.80
2023-04-25T13:55:20.301Z,5.43
2023-04-25T13:57:47.264Z,8.07
2023-04-25T14:00:14.962Z,10.48
2023-04-25T14:02:43.815Z,8.93
2023-04-25T14:05:10.640Z,4.30
2023-04-25T14:07:38.217Z,7.85
2023-04-25T14:10:06.598Z,7.57
2023-04-25T14:12:37.169Z,7.05
2023-04-25T14:15:04.526Z,5.63
2023-04-25T14:17:31.310Z,11.20
2023-04-25T14:19:58.172Z,7.13
2023-04-25T14:22:27.866Z,7.18
2023-04-25T14:24:54.765Z,7.35
2023-04-25T14:27:23.912Z,8.30
2023-04-25T14:29:50.682Z,6.75
2023-04-25T14:32:17.417Z,8.45
2023-04-25T14:34:44.102Z,6.05
2023-04-25T14:37:11.008Z,5.47
2023-04-25T14:39:38.592Z,5.97
2023-04-25T14:42:07.727Z,10.10
2023-04-25T14:44:35.729Z,10.23
2023-04-25T14:47:04.956Z,5.00
2023-04-25T14:49:33.661Z,13.52
2023-04-25T14:52:02.680Z,9.05
2023-04-25T14:54:29.409Z,4.47
2023-04-25T14:56:56.500Z,5.95
2023-04-25T14:59:25.591Z,6.03
2023-04-25T15:01:52.934Z,5.68
2023-04-25T15:04:19.872Z,9.13
2023-04-25T15:06:49.183Z,6.22
2023-04-25T15:09:17.291Z,7.57
2023-04-25T15:11:44.096Z,5.88
2023-04-25T15:14:11.130Z,7.75
2023-04-25T15:16:37.867Z,5.07
2023-04-25T15:19:06.505Z,8.10
2023-04-25T15:21:33.334Z,10.43
2023-04-25T15:24:02.970Z,4.72
2023-04-25T15:26:38.187Z,6.80
2023-04-25T15:29:06.801Z,3.75
2023-04-25T15:31:33.627Z,6.40
2023-04-25T15:34:00.415Z,5.07
2023-04-25T15:36:26.995Z,5.32
2023-04-25T15:38:53.691Z,6.00
2023-04-25T15:41:20.708Z,4.93
2023-04-25T15:43:49.548Z,4.15
2023-04-25T15:46:16.838Z,6.63
2023-04-25T15:48:44.248Z,5.88
2023-04-25T15:51:11.127Z,11.18
2023-04-25T15:53:38.049Z,8.88
2023-04-25T15:56:04.998Z,8.13
2023-04-25T15:58:31.750Z,3.72
2023-04-25T16:00:58.876Z,5.28
2023-04-25T16:03:28.408Z,6.78
2023-04-25T16:05:55.173Z,5.70
2023-04-25T16:08:21.839Z,6.65
2023-04-25T16:10:49.215Z,7.00
2023-04-25T16:13:15.837Z,4.85
2023-04-25T16:15:42.500Z,4.93
2023-04-25T16:18:09.258Z,6.07
2023-04-25T16:20:36.055Z,3.95
2023-04-25T16:23:02.638Z,7.07
2023-04-25T16:25:29.338Z,3.55
2023-04-25T16:27:55.963Z,4.35
2023-04-25T16:30:22.707Z,28.13
2023-04-25T16:32:49.378Z,11.05
2023-04-25T16:35:16.110Z,4.97
2023-04-25T16:37:42.804Z,7.22
2023-04-25T16:40:12.680Z,3.90
2023-04-25T16:42:39.454Z,2.05
2023-04-25T16:45:06.489Z,3.33
2023-04-25T16:47:33.158Z,3.83
2023-04-25T16:50:01.806Z,2.67
2023-04-25T16:52:28.459Z,2.75
2023-04-25T16:54:55.249Z,4.65
2023-04-25T16:57:22.103Z,4.95
2023-04-25T16:59:48.830Z,4.05
2023-04-25T17:02:15.815Z,9.10
2023-04-25T17:04:42.719Z,4.72
2023-04-25T17:07:09.637Z,5.07
2023-04-25T17:09:36.465Z,5.30
2023-04-25T17:12:04.292Z,6.78
2023-04-25T17:14:33.165Z,6.07
2023-04-25T17:17:00.157Z,4.45
2023-04-25T17:19:29.816Z,7.13
2023-04-25T17:21:56.497Z,6.13
2023-04-25T17:24:23.224Z,6.03
2023-04-25T17:26:50.058Z,8.70
2023-04-25T17:29:16.996Z,7.25
2023-04-25T17:31:53.646Z,11.38
2023-04-25T17:34:20.900Z,10.60
2023-04-25T17:36:50.731Z,4.43
2023-04-25T17:39:21.635Z,4.95
2023-04-25T17:41:48.548Z,5.07
2023-04-25T17:44:15.302Z,5.70
2023-04-25T17:46:42.071Z,11.82
2023-04-25T17:49:08.758Z,5.57
2023-04-25T17:51:35.555Z,4.30
2023-04-25T17:54:02.276Z,9.68
2023-04-25T17:56:29.358Z,5.47
2023-04-25T17:58:58.833Z,7.32
2023-04-25T18:01:25.604Z,7.20
2023-04-25T18:03:52.483Z,5.03
2023-04-25T18:06:35.127Z,4.22
2023-04-25T18:09:02.754Z,6.25
2023-04-25T18:11:30.102Z,2.55
2023-04-25T18:13:56.770Z,4.40
2023-04-25T18:16:52.240Z,4.25
2023-04-25T18:19:21.714Z,7.63
2023-04-25T18:21:50.063Z,3.28
2023-04-25T18:24:17.968Z,2.42
2023-04-25T18:26:45.860Z,2.30
2023-04-25T18:29:32.061Z,4.00
2023-04-25T18:32:00.179Z,4.25
2023-04-25T18:34:29.952Z,4.28
2023-04-25T18:36:56.956Z,7.20
2023-04-25T18:39:30.011Z,4.85
2023-04-25T18:42:04.696Z,4.75
2023-04-25T18:44:36.609Z,10.05
2023-04-25T18:47:03.368Z,7.05
2023-04-25T18:49:30.028Z,9.25
2023-04-25T18:51:57.864Z,3.50
2023-04-25T18:54:24.596Z,4.40
2023-04-25T18:56:51.829Z,4.00
2023-04-25T18:59:23.325Z,5.15
2023-04-25T19:01:52.003Z,5.50
2023-04-25T19:04:18.730Z,5.65
2023-04-25T19:06:46.471Z,3.95
2023-04-25T19:09:13.506Z,3.78
2023-04-25T19:12:26.853Z,4.55
2023-04-25T19:14:54.305Z,3.70
2023-04-25T19:17:22.086Z,3.72
2023-04-25T19:19:50.927Z,3.63
2023-04-25T19:22:17.628Z,3.50
2023-04-25T19:24:44.677Z,3.80
2023-04-25T19:27:12.074Z,3.17
2023-04-25T19:29:44.356Z,7.18
2023-04-25T19:32:11.638Z,3.10
2023-04-25T19:34:38.237Z,3.45
2023-04-25T19:37:05.077Z,4.65
2023-04-25T19:39:31.793Z,3.60
2023-04-25T19:41:59.431Z,4.25
2023-04-25T19:44:26.873Z,5.15
2023-04-25T19:46:53.542Z,7.32
2023-04-25T19:49:21.393Z,5.35
2023-04-25T19:51:48.269Z,6.90
2023-04-25T19:54:14.907Z,7.20
2023-04-25T19:56:41.587Z,8.18
2023-04-25T19:59:08.386Z,7.75
2023-04-25T20:01:35.866Z,5.45
2023-04-25T20:04:02.601Z,4.85
2023-04-25T20:06:29.338Z,5.75
2023-04-25T20:08:56.250Z,7.00
2023-04-25T20:11:24.221Z,5.22
2023-04-25T20:13:51.428Z,6.15
2023-04-25T20:16:20.359Z,5.25
2023-04-25T20:18:48.564Z,6.45
2023-04-25T20:21:17.038Z,5.25
2023-04-25T20:23:44.189Z,5.18
2023-04-25T20:26:12.684Z,6.45
2023-04-25T20:28:39.984Z,5.57
2023-04-25T20:31:06.810Z,5.88
2023-04-25T20:33:39.982Z,5.72
2023-04-25T20:36:06.731Z,8.18
2023-04-25T20:38:33.470Z,6.15
2023-04-25T20:41:00.545Z,4.88
2023-04-25T20:43:27.278Z,5.32
2023-04-25T20:45:55.031Z,5.38
2023-04-25T20:48:22.298Z,5.03
2023-04-25T20:50:48.962Z,7.55
2023-04-25T20:53:15.711Z,9.00
2023-04-25T20:55:42.723Z,7.35
2023-04-25T20:58:09.358Z,8.10
2023-04-25T21:00:36.430Z,7.55
2023-04-25T21:03:05.176Z,10.40
2023-04-25T21:05:32.201Z,5.90
2023-04-25T21:07:58.926Z,7.30
2023-04-25T21:10:25.632Z,7.40
2023-04-25T21:12:52.675Z,6.25
2023-04-25T21:15:21.411Z,9.52
2023-04-25T21:17:49.703Z,13.63
2023-04-25T21:20:18.675Z,8.70
2023-04-25T21:22:51.160Z,8.30
2023-04-25T21:25:29.019Z,7.40
2023-04-25T21:27:55.810Z,7.05
2023-04-25T21:30:23.928Z,5.85
2023-04-25T21:32:52.044Z,7.78
2023-04-25T21:35:20.823Z,7.97
2023-04-25T21:37:47.547Z,7.35
2023-04-25T21:40:15.562Z,9.48
2023-04-25T21:42:44.578Z,5.53
2023-04-25T21:45:12.119Z,7.47
2023-04-25T21:47:39.338Z,5.90
2023-04-25T21:50:06.497Z,10.73
2023-04-25T21:52:33.472Z,7.03
2023-04-25T21:55:00.215Z,9.88
2023-04-25T21:57:26.914Z,7.72
2023-04-25T21:59:53.676Z,6.18
2023-04-25T22:02:20.512Z,7.30
2023-04-25T22:04:47.756Z,6.22
2023-04-25T22:07:15.599Z,7.38
2023-04-25T22:09:53.607Z,5.65
2023-04-25T22:12:23.021Z,5.88
2023-04-25T22:14:50.219Z,6.13
2023-04-25T22:17:17.887Z,6.18
2023-04-25T22:19:44.970Z,8.07
2023-04-25T22:22:11.912Z,5.90
2023-04-25T22:24:38.950Z,5.78
2023-04-25T22:27:05.738Z,5.95
2023-04-25T22:29:32.919Z,8.13
2023-04-25T22:31:59.876Z,6.35
2023-04-25T22:34:26.665Z,6.93
2023-04-25T22:36:54.922Z,6.80
2023-04-25T22:39:21.569Z,8.52
2023-04-25T22:41:48.967Z,7.75
2023-04-25T22:44:15.713Z,7.03
2023-04-25T22:46:43.286Z,7.40
2023-04-25T22:49:09.966Z,9.07
2023-04-25T22:51:37.140Z,5.35
2023-04-25T22:54:04.001Z,7.97
2023-04-25T22:56:30.646Z,5.75
2023-04-25T22:58:57.356Z,6.97
2023-04-25T23:01:29.211Z,7.38
2023-04-25T23:03:56.381Z,7.60
2023-04-25T23:06:23.175Z,7.25
2023-04-25T23:08:50.349Z,7.45
2023-04-25T23:11:17.199Z,7.18
2023-04-25T23:13:43.836Z,6.57
2023-04-25T23:16:11.040Z,6.82
2023-04-25T23:18:39.344Z,6.78
2023-04-25T23:21:10.280Z,7.65
2023-04-25T23:23:38.072Z,6.97
2023-04-25T23:26:11.810Z,6.25
2023-04-25T23:28:41.503Z,7.05
2023-04-25T23:31:10.616Z,6.60
2023-04-25T23:33:37.614Z,10.00
2023-04-25T23:36:04.565Z,8.93
2023-04-25T23:38:32.171Z,8.13
2023-04-25T23:40:58.839Z,7.15
2023-04-25T23:43:25.606Z,7.93
2023-04-25T23:45:53.931Z,6.82
2023-04-25T23:48:20.829Z,6.20
2023-04-25T23:50:47.460Z,7.55
2023-04-25T23:53:14.059Z,7.75
2023-04-25T23:55:40.979Z,6.72
2023-04-25T23:58:08.090Z,11.57
